sensor_id;sensor_type;location;lat;lon;timestamp;pressure;altitude;pressure_sealevel;temperature;humidity
28354;BME280;15603;50.878;8.036;2022-12-07T00:00:55;144241.72;;;4.13;100.00
28354;BME280;15603;50.878;8.036;2022-12-07T00:03:22;144207.88;;;3.99;100.00
28354;BME280;15603;50.878;8.036;2022-12-07T00:05:49;144207.88;;;3.99;100.00
28354;BME280;15603;50.878;8.036;2022-12-07T00:08:16;144239.34;;;4.12;100.00
28354;BME280;15603;50.878;8.036;2022-12-07T00:10:43;144198.22;;;3.95;100.00
28354;BME280;15603;50.878;8.036;2022-12-07T00:13:10;144206.69;;;3.99;100.00
28354;BME280;15603;50.878;8.036;2022-12-07T00:15:36;144212.72;;;4.01;100.00
28354;BME280;15603;50.878;8.036;2022-12-07T00:18:03;144212.72;;;4.01;100.00
28354;BME280;15603;50.878;8.036;2022-12-07T00:20:30;144215.16;;;4.02;100.00
28354;BME280;15603;50.878;8.036;2022-12-07T00:22:57;144249.00;;;4.17;100.00
28354;BME280;15603;50.878;8.036;2022-12-07T00:25:24;144234.50;;;4.10;100.00
28354;BME280;15603;50.878;8.036;2022-12-07T00:27:52;144234.50;;;4.10;100.00
28354;BME280;15603;50.878;8.036;2022-12-07T00:30:19;144194.56;;;3.93;100.00
28354;BME280;15603;50.878;8.036;2022-12-07T00:32:46;144207.88;;;3.99;100.00
28354;BME280;15603;50.878;8.036;2022-12-07T00:35:13;144183.72;;;3.89;100.00
28354;BME280;15603;50.878;8.036;2022-12-07T00:37:40;144203.06;;;3.97;100.00
28354;BME280;15603;50.878;8.036;2022-12-07T00:40:07;144210.28;;;4.00;100.00
28354;BME280;15603;50.878;8.036;2022-12-07T00:42:34;144190.94;;;3.92;100.00
28354;BME280;15603;50.878;8.036;2022-12-07T00:45:00;144212.72;;;4.01;100.00
28354;BME280;15603;50.878;8.036;2022-12-07T00:47:27;144210.28;;;4.00;100.00
28354;BME280;15603;50.878;8.036;2022-12-07T00:49:54;144212.72;;;4.01;100.00
28354;BME280;15603;50.878;8.036;2022-12-07T00:52:21;144213.91;;;4.02;100.00
28354;BME280;15603;50.878;8.036;2022-12-07T00:54:48;144223.59;;;4.06;100.00
28354;BME280;15603;50.878;8.036;2022-12-07T00:57:14;144229.66;;;4.08;100.00
28354;BME280;15603;50.878;8.036;2022-12-07T00:59:41;144221.19;;;4.05;100.00
28354;BME280;15603;50.878;8.036;2022-12-07T01:02:08;144210.28;;;4.00;100.00
28354;BME280;15603;50.878;8.036;2022-12-07T01:04:35;144205.44;;;3.98;100.00
28354;BME280;15603;50.878;8.036;2022-12-07T01:07:02;144222.41;;;4.05;100.00
28354;BME280;15603;50.878;8.036;2022-12-07T01:09:29;144240.53;;;4.13;100.00
28354;BME280;15603;50.878;8.036;2022-12-07T01:11:55;144207.88;;;3.99;100.00
28354;BME280;15603;50.878;8.036;2022-12-07T01:14:22;144188.53;;;3.91;100.00
28354;BME280;15603;50.878;8.036;2022-12-07T01:16:49;144195.78;;;3.94;100.00
28354;BME280;15603;50.878;8.036;2022-12-07T01:19:16;144204.25;;;3.98;100.00
28354;BME280;15603;50.878;8.036;2022-12-07T01:21:43;144220.00;;;4.04;100.00
28354;BME280;15603;50.878;8.036;2022-12-07T01:24:10;144222.41;;;4.05;100.00
28354;BME280;15603;50.878;8.036;2022-12-07T01:26:37;144210.28;;;4.00;100.00
28354;BME280;15603;50.878;8.036;2022-12-07T01:29:04;144221.19;;;4.05;100.00
28354;BME280;15603;50.878;8.036;2022-12-07T01:31:31;144224.84;;;4.06;100.00
28354;BME280;15603;50.878;8.036;2022-12-07T01:33:58;144241.72;;;4.13;100.00
28354;BME280;15603;50.878;8.036;2022-12-07T01:36:30;144249.00;;;4.17;100.00
28354;BME280;15603;50.878;8.036;2022-12-07T01:38:58;144242.97;;;4.14;100.00
28354;BME280;15603;50.878;8.036;2022-12-07T01:41:29;144256.28;;;4.20;100.00
28354;BME280;15603;50.878;8.036;2022-12-07T01:46:35;144239.34;;;4.12;100.00
28354;BME280;15603;50.878;8.036;2022-12-07T01:49:03;144216.38;;;4.03;100.00
28354;BME280;15603;50.878;8.036;2022-12-07T01:51:32;144239.34;;;4.12;100.00
28354;BME280;15603;50.878;8.036;2022-12-07T01:54:00;144220.00;;;4.04;100.00
28354;BME280;15603;50.878;8.036;2022-12-07T01:56:27;144203.06;;;3.97;100.00
28354;BME280;15603;50.878;8.036;2022-12-07T01:58:55;144212.72;;;4.01;100.00
28354;BME280;15603;50.878;8.036;2022-12-07T02:01:22;144232.06;;;4.09;100.00
28354;BME280;15603;50.878;8.036;2022-12-07T02:03:49;144257.50;;;4.20;100.00
28354;BME280;15603;50.878;8.036;2022-12-07T02:06:17;144265.97;;;4.24;100.00
28354;BME280;15603;50.878;8.036;2022-12-07T02:08:45;144268.34;;;4.25;100.00
28354;BME280;15603;50.878;8.036;2022-12-07T02:11:13;144261.13;;;4.22;100.00
28354;BME280;15603;50.878;8.036;2022-12-07T02:13:40;144240.53;;;4.13;100.00
28354;BME280;15603;50.878;8.036;2022-12-07T02:24:14;144270.81;;;4.26;100.00
28354;BME280;15603;50.878;8.036;2022-12-07T02:29:22;144257.50;;;4.20;100.00
28354;BME280;15603;50.878;8.036;2022-12-07T02:32:11;144256.28;;;4.20;100.00
28354;BME280;15603;50.878;8.036;2022-12-07T02:37:13;144273.19;;;4.27;100.00
28354;BME280;15603;50.878;8.036;2022-12-07T02:39:52;144274.44;;;4.27;100.00
28354;BME280;15603;50.878;8.036;2022-12-07T02:42:24;144279.28;;;4.29;100.00
28354;BME280;15603;50.878;8.036;2022-12-07T02:44:53;144268.34;;;4.25;100.00
28354;BME280;15603;50.878;8.036;2022-12-07T02:47:20;144296.19;;;4.37;100.00
28354;BME280;15603;50.878;8.036;2022-12-07T02:49:48;144278.03;;;4.29;100.00
28354;BME280;15603;50.878;8.036;2022-12-07T02:52:16;144280.47;;;4.30;100.00
28354;BME280;15603;50.878;8.036;2022-12-07T02:54:42;144292.59;;;4.35;100.00
28354;BME280;15603;50.878;8.036;2022-12-07T02:59:59;144301.00;;;4.39;100.00
28354;BME280;15603;50.878;8.036;2022-12-07T03:02:31;144269.59;;;4.25;100.00
28354;BME280;15603;50.878;8.036;2022-12-07T03:12:24;144273.19;;;4.27;100.00
28354;BME280;15603;50.878;8.036;2022-12-07T03:15:00;144281.66;;;4.30;100.00
28354;BME280;15603;50.878;8.036;2022-12-07T03:17:28;144311.94;;;4.43;100.00
28354;BME280;15603;50.878;8.036;2022-12-07T03:19:58;144307.09;;;4.41;100.00
28354;BME280;15603;50.878;8.036;2022-12-07T03:22:28;144305.91;;;4.41;100.00
28354;BME280;15603;50.878;8.036;2022-12-07T03:25:00;144315.56;;;4.45;100.00
28354;BME280;15603;50.878;8.036;2022-12-07T03:27:34;144316.78;;;4.45;100.00
28354;BME280;15603;50.878;8.036;2022-12-07T03:30:12;144316.78;;;4.45;100.00
28354;BME280;15603;50.878;8.036;2022-12-07T03:32:50;144307.09;;;4.41;100.00
28354;BME280;15603;50.878;8.036;2022-12-07T03:35:24;144304.66;;;4.40;100.00
28354;BME280;15603;50.878;8.036;2022-12-07T03:37:54;144310.75;;;4.43;100.00
28354;BME280;15603;50.878;8.036;2022-12-07T03:40:24;144330.09;;;4.51;100.00
28354;BME280;15603;50.878;8.036;2022-12-07T03:42:52;144305.91;;;4.41;100.00
28354;BME280;15603;50.878;8.036;2022-12-07T03:45:21;144316.78;;;4.45;100.00
28354;BME280;15603;50.878;8.036;2022-12-07T03:50:20;144319.16;;;4.46;100.00
28354;BME280;15603;50.878;8.036;2022-12-07T03:52:53;144348.25;;;4.59;100.00
28354;BME280;15603;50.878;8.036;2022-12-07T03:55:27;144349.44;;;4.59;100.00
28354;BME280;15603;50.878;8.036;2022-12-07T03:57:55;144347.03;;;4.58;100.00
28354;BME280;15603;50.878;8.036;2022-12-07T04:00:23;144339.75;;;4.55;100.00
28354;BME280;15603;50.878;8.036;2022-12-07T04:02:53;144353.06;;;4.61;100.00
28354;BME280;15603;50.878;8.036;2022-12-07T04:05:21;144331.28;;;4.51;100.00
28354;BME280;15603;50.878;8.036;2022-12-07T04:07:48;144297.44;;;4.37;100.00
28354;BME280;15603;50.878;8.036;2022-12-07T04:10:15;144353.06;;;4.61;100.00
28354;BME280;15603;50.878;8.036;2022-12-07T04:12:42;144331.28;;;4.51;100.00
28354;BME280;15603;50.878;8.036;2022-12-07T04:15:09;144327.66;;;4.50;100.00
28354;BME280;15603;50.878;8.036;2022-12-07T04:17:36;144345.78;;;4.58;100.00
28354;BME280;15603;50.878;8.036;2022-12-07T04:20:03;144365.19;;;4.66;100.00
28354;BME280;15603;50.878;8.036;2022-12-07T04:22:31;144345.78;;;4.58;100.00
28354;BME280;15603;50.878;8.036;2022-12-07T04:24:58;144342.19;;;4.56;100.00
28354;BME280;15603;50.878;8.036;2022-12-07T04:27:24;144305.91;;;4.41;100.00
28354;BME280;15603;50.878;8.036;2022-12-07T04:29:51;144296.19;;;4.37;100.00
28354;BME280;15603;50.878;8.036;2022-12-07T04:32:18;144316.78;;;4.45;100.00
28354;BME280;15603;50.878;8.036;2022-12-07T04:34:45;144337.31;;;4.54;100.00
28354;BME280;15603;50.878;8.036;2022-12-07T04:37:12;144322.81;;;4.48;100.00
28354;BME280;15603;50.878;8.036;2022-12-07T04:39:38;144330.09;;;4.51;100.00
28354;BME280;15603;50.878;8.036;2022-12-07T04:42:05;144340.97;;;4.56;100.00
28354;BME280;15603;50.878;8.036;2022-12-07T04:44:32;144360.34;;;4.64;100.00
28354;BME280;15603;50.878;8.036;2022-12-07T04:46:59;144356.72;;;4.62;100.00
28354;BME280;15603;50.878;8.036;2022-12-07T04:49:26;144363.94;;;4.65;100.00
28354;BME280;15603;50.878;8.036;2022-12-07T04:51:53;144330.09;;;4.51;100.00
28354;BME280;15603;50.878;8.036;2022-12-07T04:54:20;144362.75;;;4.65;100.00
28354;BME280;15603;50.878;8.036;2022-12-07T04:56:47;144324.06;;;4.48;100.00
28354;BME280;15603;50.878;8.036;2022-12-07T04:59:15;144332.47;;;4.52;100.00
28354;BME280;15603;50.878;8.036;2022-12-07T05:01:42;144327.66;;;4.50;100.00
28354;BME280;15603;50.878;8.036;2022-12-07T05:04:09;144330.09;;;4.51;100.00
28354;BME280;15603;50.878;8.036;2022-12-07T05:06:36;144344.59;;;4.57;100.00
28354;BME280;15603;50.878;8.036;2022-12-07T05:09:03;144314.34;;;4.44;100.00
28354;BME280;15603;50.878;8.036;2022-12-07T05:11:30;144319.16;;;4.46;100.00
28354;BME280;15603;50.878;8.036;2022-12-07T05:14:17;144324.06;;;4.48;100.00
28354;BME280;15603;50.878;8.036;2022-12-07T05:16:45;144279.28;;;4.29;100.00
28354;BME280;15603;50.878;8.036;2022-12-07T05:19:12;144305.91;;;4.41;100.00
28354;BME280;15603;50.878;8.036;2022-12-07T05:21:39;144249.00;;;4.17;100.00
28354;BME280;15603;50.878;8.036;2022-12-07T05:24:07;144242.97;;;4.14;100.00
28354;BME280;15603;50.878;8.036;2022-12-07T05:26:34;144280.47;;;4.30;100.00
28354;BME280;15603;50.878;8.036;2022-12-07T05:29:01;144268.34;;;4.25;100.00
28354;BME280;15603;50.878;8.036;2022-12-07T05:31:28;144249.00;;;4.17;100.00
28354;BME280;15603;50.878;8.036;2022-12-07T05:33:55;144262.31;;;4.22;100.00
28354;BME280;15603;50.878;8.036;2022-12-07T05:36:22;144213.91;;;4.02;100.00
28354;BME280;15603;50.878;8.036;2022-12-07T05:38:49;144189.75;;;3.91;100.00
28354;BME280;15603;50.878;8.036;2022-12-07T05:41:17;144142.59;;;3.71;100.00
28354;BME280;15603;50.878;8.036;2022-12-07T05:44:03;144077.28;;;3.44;100.00
28354;BME280;15603;50.878;8.036;2022-12-07T05:46:30;144059.13;;;3.36;100.00
28354;BME280;15603;50.878;8.036;2022-12-07T05:48:57;144027.69;;;3.23;100.00
28354;BME280;15603;50.878;8.036;2022-12-07T05:51:24;144001.09;;;3.11;100.00
28354;BME280;15603;50.878;8.036;2022-12-07T05:53:50;143975.75;;;3.01;100.00
28354;BME280;15603;50.878;8.036;2022-12-07T05:56:17;143961.25;;;2.94;100.00
28354;BME280;15603;50.878;8.036;2022-12-07T05:58:44;143953.97;;;2.91;100.00
28354;BME280;15603;50.878;8.036;2022-12-07T06:01:29;143960.00;;;2.94;100.00
28354;BME280;15603;50.878;8.036;2022-12-07T06:03:56;143952.78;;;2.91;100.00
28354;BME280;15603;50.878;8.036;2022-12-07T06:06:23;143946.69;;;2.88;100.00
28354;BME280;15603;50.878;8.036;2022-12-07T06:08:50;143941.88;;;2.86;100.00
28354;BME280;15603;50.878;8.036;2022-12-07T06:11:17;143944.31;;;2.87;100.00
28354;BME280;15603;50.878;8.036;2022-12-07T06:14:03;143943.13;;;2.87;100.00
28354;BME280;15603;50.878;8.036;2022-12-07T06:16:30;143966.06;;;2.97;100.00
28354;BME280;15603;50.878;8.036;2022-12-07T06:18:56;143976.94;;;3.01;100.00
28354;BME280;15603;50.878;8.036;2022-12-07T06:21:23;144003.53;;;3.12;100.00
28354;BME280;15603;50.878;8.036;2022-12-07T06:23:52;144028.91;;;3.23;100.00
28354;BME280;15603;50.878;8.036;2022-12-07T06:26:19;144050.66;;;3.32;100.00
28354;BME280;15603;50.878;8.036;2022-12-07T06:28:46;144080.91;;;3.45;100.00
28354;BME280;15603;50.878;8.036;2022-12-07T06:31:13;144089.38;;;3.49;100.00
28354;BME280;15603;50.878;8.036;2022-12-07T06:33:40;144096.59;;;3.52;100.00
28354;BME280;15603;50.878;8.036;2022-12-07T06:36:08;144125.66;;;3.64;100.00
28354;BME280;15603;50.878;8.036;2022-12-07T06:38:35;144142.59;;;3.71;100.00
28354;BME280;15603;50.878;8.036;2022-12-07T06:41:02;144140.16;;;3.70;100.00
28354;BME280;15603;50.878;8.036;2022-12-07T06:43:29;144125.66;;;3.64;100.00
28354;BME280;15603;50.878;8.036;2022-12-07T06:45:56;144111.16;;;3.58;100.00
28354;BME280;15603;50.878;8.036;2022-12-07T06:48:23;144123.22;;;3.63;100.00
28354;BME280;15603;50.878;8.036;2022-12-07T06:50:50;144112.34;;;3.59;100.00
28354;BME280;15603;50.878;8.036;2022-12-07T06:53:21;144140.16;;;3.70;100.00
28354;BME280;15603;50.878;8.036;2022-12-07T06:55:48;144149.81;;;3.74;100.00
28354;BME280;15603;50.878;8.036;2022-12-07T06:58:15;144122.00;;;3.63;100.00
28354;BME280;15603;50.878;8.036;2022-12-07T07:00:42;143970.91;;;2.99;100.00
28354;BME280;15603;50.878;8.036;2022-12-07T07:03:09;144160.72;;;3.79;100.00
28354;BME280;15603;50.878;8.036;2022-12-07T07:05:36;144194.56;;;3.93;100.00
28354;BME280;15603;50.878;8.036;2022-12-07T07:08:03;144227.22;;;4.07;100.00
28354;BME280;15603;50.878;8.036;2022-12-07T07:10:48;144203.06;;;3.97;100.00
28354;BME280;15603;50.878;8.036;2022-12-07T07:13:15;144210.28;;;4.00;100.00
28354;BME280;15603;50.878;8.036;2022-12-07T07:15:41;144184.91;;;3.89;100.00
28354;BME280;15603;50.878;8.036;2022-12-07T07:18:09;144164.31;;;3.81;100.00
28354;BME280;15603;50.878;8.036;2022-12-07T07:20:36;144205.44;;;3.98;100.00
28354;BME280;15603;50.878;8.036;2022-12-07T07:23:03;144198.22;;;3.95;100.00
28354;BME280;15603;50.878;8.036;2022-12-07T07:25:30;144192.13;;;3.92;100.00
28354;BME280;15603;50.878;8.036;2022-12-07T07:27:56;144189.75;;;3.91;100.00
28354;BME280;15603;50.878;8.036;2022-12-07T07:30:23;144190.94;;;3.92;100.00
28354;BME280;15603;50.878;8.036;2022-12-07T07:32:50;144183.72;;;3.89;100.00
28354;BME280;15603;50.878;8.036;2022-12-07T07:35:17;144230.88;;;4.09;100.00
28354;BME280;15603;50.878;8.036;2022-12-07T07:37:44;144255.03;;;4.19;100.00
28354;BME280;15603;50.878;8.036;2022-12-07T07:40:11;144275.63;;;4.28;100.00
28354;BME280;15603;50.878;8.036;2022-12-07T07:42:38;144261.13;;;4.22;100.00
28354;BME280;15603;50.878;8.036;2022-12-07T07:45:05;144282.88;;;4.31;100.00
28354;BME280;15603;50.878;8.036;2022-12-07T07:47:32;144265.97;;;4.24;100.00
28354;BME280;15603;50.878;8.036;2022-12-07T07:49:59;144258.69;;;4.21;100.00
28354;BME280;15603;50.878;8.036;2022-12-07T07:52:27;144275.63;;;4.28;100.00
28354;BME280;15603;50.878;8.036;2022-12-07T07:54:53;144273.19;;;4.27;100.00
28354;BME280;15603;50.878;8.036;2022-12-07T07:57:20;144256.28;;;4.20;100.00
28354;BME280;15603;50.878;8.036;2022-12-07T07:59:47;144236.91;;;4.11;100.00
28354;BME280;15603;50.878;8.036;2022-12-07T08:02:18;144297.44;;;4.37;100.00
28354;BME280;15603;50.878;8.036;2022-12-07T08:04:45;144291.34;;;4.35;100.00
28354;BME280;15603;50.878;8.036;2022-12-07T08:07:12;144263.53;;;4.23;100.00
28354;BME280;15603;50.878;8.036;2022-12-07T08:09:39;144275.63;;;4.28;100.00
28354;BME280;15603;50.878;8.036;2022-12-07T08:12:06;144311.94;;;4.43;100.00
28354;BME280;15603;50.878;8.036;2022-12-07T08:14:33;144334.91;;;4.53;100.00
28354;BME280;15603;50.878;8.036;2022-12-07T08:17:00;144331.28;;;4.51;100.00
28354;BME280;15603;50.878;8.036;2022-12-07T08:19:27;144326.44;;;4.49;100.00
28354;BME280;15603;50.878;8.036;2022-12-07T08:21:54;144331.28;;;4.51;100.00
28354;BME280;15603;50.878;8.036;2022-12-07T08:24:22;144307.09;;;4.41;100.00
28354;BME280;15603;50.878;8.036;2022-12-07T08:26:49;144311.94;;;4.43;100.00
28354;BME280;15603;50.878;8.036;2022-12-07T08:29:17;144351.88;;;4.60;100.00
28354;BME280;15603;50.878;8.036;2022-12-07T08:31:44;144382.09;;;4.73;100.00
28354;BME280;15603;50.878;8.036;2022-12-07T08:34:11;144384.53;;;4.74;100.00
28354;BME280;15603;50.878;8.036;2022-12-07T08:36:38;144363.94;;;4.65;100.00
28354;BME280;15603;50.878;8.036;2022-12-07T08:39:05;144365.19;;;4.66;100.00
28354;BME280;15603;50.878;8.036;2022-12-07T08:41:52;144362.75;;;4.65;100.00
28354;BME280;15603;50.878;8.036;2022-12-07T08:44:19;144353.06;;;4.61;100.00
28354;BME280;15603;50.878;8.036;2022-12-07T08:46:51;144340.97;;;4.56;100.00
28354;BME280;15603;50.878;8.036;2022-12-07T08:49:24;144316.78;;;4.45;100.00
28354;BME280;15603;50.878;8.036;2022-12-07T08:51:53;144350.63;;;4.60;100.00
28354;BME280;15603;50.878;8.036;2022-12-07T08:54:21;144366.38;;;4.66;100.00
28354;BME280;15603;50.878;8.036;2022-12-07T08:56:48;144343.41;;;4.57;100.00
28354;BME280;15603;50.878;8.036;2022-12-07T08:59:24;144305.91;;;4.41;100.00
28354;BME280;15603;50.878;8.036;2022-12-07T09:01:52;144287.75;;;4.33;100.00
28354;BME280;15603;50.878;8.036;2022-12-07T09:04:19;144205.44;;;3.98;100.00
28354;BME280;15603;50.878;8.036;2022-12-07T09:06:47;144350.63;;;4.60;100.00
28354;BME280;15603;50.878;8.036;2022-12-07T09:09:14;144350.63;;;4.60;100.00
28354;BME280;15603;50.878;8.036;2022-12-07T09:11:41;144373.63;;;4.69;100.00
28354;BME280;15603;50.878;8.036;2022-12-07T09:14:08;144359.09;;;4.63;100.00
28354;BME280;15603;50.878;8.036;2022-12-07T09:16:35;144406.34;;;4.83;100.00
28354;BME280;15603;50.878;8.036;2022-12-07T09:19:02;144386.94;;;4.75;100.00
28354;BME280;15603;50.878;8.036;2022-12-07T09:21:29;144416.00;;;4.87;100.00
28354;BME280;15603;50.878;8.036;2022-12-07T09:23:57;144414.81;;;4.87;100.00
28354;BME280;15603;50.878;8.036;2022-12-07T09:26:23;144370.03;;;4.68;100.00
28354;BME280;15603;50.878;8.036;2022-12-07T09:28:50;144385.75;;;4.75;100.00
28354;BME280;15603;50.878;8.036;2022-12-07T09:31:17;144401.50;;;4.81;100.00
28354;BME280;15603;50.878;8.036;2022-12-07T09:33:57;144386.94;;;4.75;100.00
28354;BME280;15603;50.878;8.036;2022-12-07T09:36:24;144379.69;;;4.72;100.00
28354;BME280;15603;50.878;8.036;2022-12-07T09:38:53;144428.09;;;4.92;100.00
28354;BME280;15603;50.878;8.036;2022-12-07T09:41:20;144379.69;;;4.72;100.00
28354;BME280;15603;50.878;8.036;2022-12-07T09:43:48;144374.88;;;4.70;100.00
28354;BME280;15603;50.878;8.036;2022-12-07T09:46:16;144382.09;;;4.73;100.00
28354;BME280;15603;50.878;8.036;2022-12-07T09:48:45;144372.44;;;4.69;100.00
28354;BME280;15603;50.878;8.036;2022-12-07T09:53:48;144403.91;;;4.82;100.00
28354;BME280;15603;50.878;8.036;2022-12-07T09:56:16;144446.25;;;5.00;100.00
28354;BME280;15603;50.878;8.036;2022-12-07T09:58:43;144440.22;;;4.98;100.00
28354;BME280;15603;50.878;8.036;2022-12-07T10:01:15;144491.03;;;5.19;100.00
28354;BME280;15603;50.878;8.036;2022-12-07T10:03:53;144512.84;;;5.28;100.00
28354;BME280;15603;50.878;8.036;2022-12-07T10:06:21;144568.53;;;5.52;100.00
28354;BME280;15603;50.878;8.036;2022-12-07T10:08:48;144563.69;;;5.50;100.00
28354;BME280;15603;50.878;8.036;2022-12-07T10:11:15;144538.28;;;5.39;100.00
28354;BME280;15603;50.878;8.036;2022-12-07T10:13:44;144543.13;;;5.41;100.00
28354;BME280;15603;50.878;8.036;2022-12-07T10:18:53;144547.97;;;5.43;100.00
28354;BME280;15603;50.878;8.036;2022-12-07T10:21:24;144532.22;;;5.37;100.00
28354;BME280;15603;50.878;8.036;2022-12-07T10:24:04;144518.88;;;5.31;100.00
28354;BME280;15603;50.878;8.036;2022-12-07T10:29:30;144573.38;;;5.54;100.00
28354;BME280;15603;50.878;8.036;2022-12-07T10:31:59;144575.81;;;5.55;100.00
28354;BME280;15603;50.878;8.036;2022-12-07T10:34:27;144546.78;;;5.43;100.00
28354;BME280;15603;50.878;8.036;2022-12-07T10:39:51;144546.78;;;5.43;100.00
28354;BME280;15603;50.878;8.036;2022-12-07T10:42:22;144547.97;;;5.43;100.00
28354;BME280;15603;50.878;8.036;2022-12-07T10:44:50;144561.31;;;5.49;100.00
28354;BME280;15603;50.878;8.036;2022-12-07T10:50:10;144592.78;;;5.62;100.00
28354;BME280;15603;50.878;8.036;2022-12-07T11:00:30;144570.97;;;5.53;100.00
28354;BME280;15603;50.878;8.036;2022-12-07T11:16:06;144613.34;;;5.71;100.00
28354;BME280;15603;50.878;8.036;2022-12-07T11:21:27;144581.88;;;5.58;100.00
28354;BME280;15603;50.878;8.036;2022-12-07T11:24:01;144617.00;;;5.73;100.00
28354;BME280;15603;50.878;8.036;2022-12-07T11:36:54;144577.03;;;5.56;100.00
28354;BME280;15603;50.878;8.036;2022-12-07T11:39:31;144529.81;;;5.36;100.00
28354;BME280;15603;50.878;8.036;2022-12-07T11:42:10;144549.19;;;5.44;100.00
28354;BME280;15603;50.878;8.036;2022-12-07T11:44:46;144538.28;;;5.39;100.00
28354;BME280;15603;50.878;8.036;2022-12-07T11:47:17;144532.22;;;5.37;100.00
28354;BME280;15603;50.878;8.036;2022-12-07T11:52:22;144574.63;;;5.55;100.00
28354;BME280;15603;50.878;8.036;2022-12-07T11:54:51;144603.66;;;5.67;100.00
28354;BME280;15603;50.878;8.036;2022-12-07T11:57:41;144578.22;;;5.56;100.00
28354;BME280;15603;50.878;8.036;2022-12-07T12:00:12;144520.13;;;5.31;100.00
28354;BME280;15603;50.878;8.036;2022-12-07T12:02:48;144562.50;;;5.49;100.00
28354;BME280;15603;50.878;8.036;2022-12-07T12:05:21;144583.09;;;5.58;100.00
28354;BME280;15603;50.878;8.036;2022-12-07T12:07:51;144629.13;;;5.78;100.00
28354;BME280;15603;50.878;8.036;2022-12-07T12:13:43;144658.19;;;5.90;100.00
28354;BME280;15603;50.878;8.036;2022-12-07T12:21:47;144815.75;;;6.57;98.89
28354;BME280;15603;50.878;8.036;2022-12-07T12:24:25;144767.25;;;6.36;98.50
28354;BME280;15603;50.878;8.036;2022-12-07T12:26:57;144792.72;;;6.47;96.81
28354;BME280;15603;50.878;8.036;2022-12-07T12:29:33;144798.78;;;6.49;99.12
28354;BME280;15603;50.878;8.036;2022-12-07T12:32:04;144920.00;;;7.01;97.51
28354;BME280;15603;50.878;8.036;2022-12-07T12:35:22;144920.00;;;7.01;95.50
28354;BME280;15603;50.878;8.036;2022-12-07T12:42:44;144798.78;;;6.49;96.59
28354;BME280;15603;50.878;8.036;2022-12-07T12:50:34;144653.34;;;5.88;100.00
28354;BME280;15603;50.878;8.036;2022-12-07T12:53:23;144653.34;;;5.88;98.26
28354;BME280;15603;50.878;8.036;2022-12-07T12:56:03;144607.31;;;5.68;100.00
28354;BME280;15603;50.878;8.036;2022-12-07T12:58:36;144594.00;;;5.63;100.00
28354;BME280;15603;50.878;8.036;2022-12-07T13:03:53;144767.25;;;6.36;95.71
28354;BME280;15603;50.878;8.036;2022-12-07T13:08:51;144803.63;;;6.52;93.61
28354;BME280;15603;50.878;8.036;2022-12-07T13:11:19;144813.31;;;6.56;94.13
28354;BME280;15603;50.878;8.036;2022-12-07T13:13:47;144786.63;;;6.44;96.12
28354;BME280;15603;50.878;8.036;2022-12-07T13:18:41;144770.91;;;6.38;94.86
28354;BME280;15603;50.878;8.036;2022-12-07T13:28:47;144755.13;;;6.31;97.28
28354;BME280;15603;50.878;8.036;2022-12-07T13:33:54;144712.75;;;6.13;97.59
28354;BME280;15603;50.878;8.036;2022-12-07T13:36:22;144716.38;;;6.15;98.73
28354;BME280;15603;50.878;8.036;2022-12-07T13:38:51;144688.53;;;6.03;98.72
28354;BME280;15603;50.878;8.036;2022-12-07T13:41:18;144659.38;;;5.90;100.00
28354;BME280;15603;50.878;8.036;2022-12-07T13:43:50;144736.97;;;6.23;100.00
28354;BME280;15603;50.878;8.036;2022-12-07T13:46:24;144743.03;;;6.26;100.00
28354;BME280;15603;50.878;8.036;2022-12-07T13:48:52;144762.41;;;6.34;98.51
28354;BME280;15603;50.878;8.036;2022-12-07T13:51:21;144713.94;;;6.14;100.00
28354;BME280;15603;50.878;8.036;2022-12-07T13:53:49;144728.50;;;6.20;100.00
28354;BME280;15603;50.878;8.036;2022-12-07T13:56:17;144672.75;;;5.96;100.00
28354;BME280;15603;50.878;8.036;2022-12-07T13:58:44;144655.78;;;5.89;100.00
28354;BME280;15603;50.878;8.036;2022-12-07T14:01:11;144623.03;;;5.75;100.00
28354;BME280;15603;50.878;8.036;2022-12-07T14:03:40;144594.00;;;5.63;100.00
28354;BME280;15603;50.878;8.036;2022-12-07T14:08:40;144541.88;;;5.41;100.00
28354;BME280;15603;50.878;8.036;2022-12-07T14:11:07;144531.00;;;5.36;100.00
28354;BME280;15603;50.878;8.036;2022-12-07T14:13:44;144477.72;;;5.14;100.00
28354;BME280;15603;50.878;8.036;2022-12-07T14:16:22;144458.38;;;5.05;100.00
28354;BME280;15603;50.878;8.036;2022-12-07T14:18:51;144481.38;;;5.15;100.00
28354;BME280;15603;50.878;8.036;2022-12-07T14:21:20;144451.13;;;5.02;100.00
28354;BME280;15603;50.878;8.036;2022-12-07T14:26:49;144447.50;;;5.01;100.00
28354;BME280;15603;50.878;8.036;2022-12-07T14:31:53;144420.84;;;4.89;100.00
28354;BME280;15603;50.878;8.036;2022-12-07T14:34:20;144457.16;;;5.05;100.00
28354;BME280;15603;50.878;8.036;2022-12-07T14:36:48;144428.09;;;4.92;100.00
28354;BME280;15603;50.878;8.036;2022-12-07T14:39:15;144224.84;;;4.06;100.00
28354;BME280;15603;50.878;8.036;2022-12-07T14:41:41;144401.50;;;4.81;100.00
28354;BME280;15603;50.878;8.036;2022-12-07T14:44:18;144432.97;;;4.95;100.00
28354;BME280;15603;50.878;8.036;2022-12-07T14:46:50;144432.97;;;4.95;100.00
28354;BME280;15603;50.878;8.036;2022-12-07T14:49:37;144391.78;;;4.77;100.00
28354;BME280;15603;50.878;8.036;2022-12-07T14:52:05;144426.91;;;4.92;100.00
28354;BME280;15603;50.878;8.036;2022-12-07T14:54:52;144459.56;;;5.06;100.00
28354;BME280;15603;50.878;8.036;2022-12-07T14:57:19;144432.97;;;4.95;100.00
28354;BME280;15603;50.878;8.036;2022-12-07T14:59:46;144432.97;;;4.95;100.00
28354;BME280;15603;50.878;8.036;2022-12-07T15:02:14;144446.25;;;5.00;100.00
28354;BME280;15603;50.878;8.036;2022-12-07T15:04:41;144451.13;;;5.02;100.00